Time;durP1;ratioP1;P1;durP2;ratioP2;P2;SDS_P1;SDS_P2;PMS_P1;PMS_P2;Temp;Humidity;BMP_temperature;BMP_pressure;BME280_temperature;BME280_humidity;BME280_pressure;Samples;Min_cycle;Max_cycle;Signal;HPM_P1;HPM_P2
2023/05/11 00:00:11;;;;;;;;;;;;;;;14.13;100.00;99257.97;5026571;28;19924;-79
2023/05/11 00:02:36;;;;;;;;;;;;;;;14.10;100.00;99263.59;5030467;28;19979;-81
2023/05/11 00:05:01;;;;;;;;;;;;;;;14.17;100.00;99266.38;5030060;28;20049;-82
2023/05/11 00:07:27;;;;;;;;;;;;;;;14.26;100.00;99274.13;5029568;28;19917;-83
2023/05/11 00:09:53;;;;;;;;;;;;;;;14.31;100.00;99276.28;5029810;28;19952;-82
2023/05/11 00:12:18;;;;;;;;;;;;;;;14.38;100.00;99271.94;5030215;28;20012;-81
2023/05/11 00:14:43;;;;;;;;;;;;;;;14.48;100.00;99277.06;5031994;28;19921;-82
2023/05/11 00:17:10;;;;;;;;;;;;;;;14.51;100.00;99287.31;5035356;28;19974;-81
2023/05/11 00:19:35;;;;;;;;;;;;;;;14.52;100.00;99278.34;5033384;28;19917;-81
2023/05/11 00:22:01;;;;;;;;;;;;;;;14.58;100.00;99282.97;5033316;28;19924;-81
2023/05/11 00:24:26;;;;;;;;;;;;;;;14.59;100.00;99279.31;5031157;28;19921;-81
2023/05/11 00:26:52;;;;;;;;;;;;;;;14.64;100.00;99261.03;5033526;28;19924;-81
2023/05/11 00:29:17;;;;;;;;;;;;;;;14.69;100.00;99270.13;5049459;28;20015;-80
2023/05/11 00:31:46;;;;;;;;;;;;;;;14.70;100.00;99266.47;5033474;28;19921;-80
2023/05/11 00:34:13;;;;;;;;;;;;;;;14.51;100.00;99266.06;5032685;28;20016;-81
2023/05/11 00:36:38;;;;;;;;;;;;;;;14.57;100.00;99260.06;5033432;28;19928;-81
2023/05/11 00:39:04;;;;;;;;;;;;;;;14.53;100.00;99254.28;5048556;28;19917;-82
2023/05/11 00:41:29;;;;;;;;;;;;;;;14.55;100.00;99246.16;5033934;28;20016;-84
2023/05/11 00:43:55;;;;;;;;;;;;;;;14.59;100.00;99247.44;5034677;28;19960;-82
2023/05/11 00:46:21;;;;;;;;;;;;;;;14.63;100.00;99248.75;5042900;28;20012;-81
2023/05/11 00:48:47;;;;;;;;;;;;;;;14.68;100.00;99236.59;5033505;28;19928;-83
2023/05/11 00:51:12;;;;;;;;;;;;;;;14.65;100.00;99230.81;5034466;28;20266;-83
2023/05/11 00:53:38;;;;;;;;;;;;;;;14.68;100.00;99233.94;5033605;28;19921;-83
2023/05/11 00:56:03;;;;;;;;;;;;;;;14.72;100.00;99219.31;5034200;28;19917;-83
2023/05/11 00:58:30;;;;;;;;;;;;;;;14.68;100.00;99225.97;5032570;28;19916;-83
2023/05/11 01:00:55;;;;;;;;;;;;;;;14.65;100.00;99222.84;5040015;28;19921;-81
2023/05/11 01:03:20;;;;;;;;;;;;;;;14.66;100.00;99232.47;5052766;28;19927;-80
2023/05/11 01:05:56;;;;;;;;;;;;;;;14.68;100.00;99223.31;5060500;28;19943;-80
2023/05/11 01:08:31;;;;;;;;;;;;;;;14.71;100.00;99227.44;5033423;28;20797;-80
2023/05/11 01:11:26;;;;;;;;;;;;;;;14.65;100.00;99225.50;5044752;28;20292;-80
2023/05/11 01:13:55;;;;;;;;;;;;;;;14.67;100.00;99226.97;4972859;28;19922;-80
2023/05/11 01:16:23;;;;;;;;;;;;;;;14.66;100.00;99227.16;5032821;28;20372;-80
2023/05/11 01:18:58;;;;;;;;;;;;;;;14.60;100.00;99230.53;5032087;28;19943;-80
2023/05/11 01:21:25;;;;;;;;;;;;;;;14.46;100.00;99221.47;5029943;28;19917;-81
2023/05/11 01:23:51;;;;;;;;;;;;;;;14.53;100.00;99226.91;5024058;28;20046;-80
2023/05/11 01:26:26;;;;;;;;;;;;;;;14.53;100.00;99222.44;5020060;28;19963;-80
2023/05/11 01:29:11;;;;;;;;;;;;;;;14.43;100.00;99221.00;5041659;28;19918;-80
2023/05/11 01:31:39;;;;;;;;;;;;;;;14.37;100.00;99238.47;5031282;28;19927;-80
2023/05/11 01:34:08;;;;;;;;;;;;;;;14.19;100.00;99237.84;5040362;28;19917;-81
2023/05/11 01:36:41;;;;;;;;;;;;;;;14.17;100.00;99238.03;5042545;28;19924;-81
2023/05/11 01:39:08;;;;;;;;;;;;;;;14.20;100.00;99247.44;5033457;28;19913;-82
2023/05/11 01:41:34;;;;;;;;;;;;;;;14.16;100.00;99246.97;5059569;28;19918;-82
2023/05/11 01:44:04;;;;;;;;;;;;;;;14.11;100.00;99244.03;5029314;28;19940;-82
2023/05/11 01:46:31;;;;;;;;;;;;;;;14.00;100.00;99239.09;5025044;28;19921;-79
2023/05/11 01:48:58;;;;;;;;;;;;;;;13.95;100.00;99238.78;5036367;28;19959;-80
2023/05/11 01:51:25;;;;;;;;;;;;;;;14.05;100.00;99234.09;5032791;28;20008;-81
2023/05/11 01:53:52;;;;;;;;;;;;;;;14.13;100.00;99234.06;5029195;28;20064;-81
2023/05/11 01:56:19;;;;;;;;;;;;;;;13.98;100.00;99233.13;5039285;28;20337;-81
2023/05/11 01:58:47;;;;;;;;;;;;;;;13.93;100.00;99224.88;5039695;28;19999;-82
2023/05/11 02:01:16;;;;;;;;;;;;;;;13.91;100.00;99227.69;5027203;28;20373;-81
2023/05/11 02:03:42;;;;;;;;;;;;;;;13.91;100.00;99221.53;5042401;28;19952;-82
2023/05/11 02:06:09;;;;;;;;;;;;;;;13.76;100.00;99221.44;5048478;28;19921;-83
2023/05/11 02:08:37;;;;;;;;;;;;;;;13.61;100.00;99225.00;5055485;28;20892;-82
2023/05/11 02:11:03;;;;;;;;;;;;;;;13.68;100.00;99225.94;5047432;28;19988;-82
2023/05/11 02:13:29;;;;;;;;;;;;;;;13.73;100.00;99234.22;5048153;28;19920;-81
2023/05/11 02:15:55;;;;;;;;;;;;;;;13.73;100.00;99223.59;5037332;28;20364;-80
2023/05/11 02:18:21;;;;;;;;;;;;;;;13.75;100.00;99224.25;5040665;28;19924;-80
2023/05/11 02:20:55;;;;;;;;;;;;;;;13.77;100.00;99217.81;5024543;28;20391;-80
2023/05/11 02:23:22;;;;;;;;;;;;;;;13.76;100.00;99225.94;5030397;28;19917;-81
2023/05/11 02:25:48;;;;;;;;;;;;;;;13.80;100.00;99221.91;5031520;28;19963;-80
2023/05/11 02:28:14;;;;;;;;;;;;;;;13.74;100.00;99219.97;5030708;28;19917;-81
2023/05/11 02:30:49;;;;;;;;;;;;;;;13.48;100.00;99223.69;5031448;28;19955;-80
2023/05/11 02:33:25;;;;;;;;;;;;;;;13.40;100.00;99213.09;5030605;28;19917;-82
2023/05/11 02:35:53;;;;;;;;;;;;;;;13.48;100.00;99221.03;5027512;28;20281;-81
2023/05/11 02:38:20;;;;;;;;;;;;;;;13.55;100.00;99215.88;5046895;28;19913;-81
2023/05/11 02:40:47;;;;;;;;;;;;;;;13.51;100.00;99212.75;5031388;28;19920;-81
2023/05/11 02:43:14;;;;;;;;;;;;;;;13.61;100.00;99214.38;5029906;28;19920;-80
2023/05/11 02:45:49;;;;;;;;;;;;;;;13.53;100.00;99210.75;5038007;28;20020;-80
2023/05/11 02:48:24;;;;;;;;;;;;;;;13.45;100.00;99204.63;5038080;28;19916;-81
2023/05/11 02:50:51;;;;;;;;;;;;;;;13.44;100.00;99201.16;5038012;28;20028;-79
2023/05/11 02:53:18;;;;;;;;;;;;;;;13.43;100.00;99194.19;5029728;28;19925;-80
2023/05/11 02:55:45;;;;;;;;;;;;;;;13.38;100.00;99188.56;5037741;28;19967;-80
2023/05/11 02:58:10;;;;;;;;;;;;;;;13.42;100.00;99195.22;5031477;28;19939;-79
2023/05/11 03:00:38;;;;;;;;;;;;;;;13.45;100.00;99192.22;5052677;28;19921;-80
2023/05/11 03:03:04;;;;;;;;;;;;;;;13.48;100.00;99186.59;5045319;28;20290;-80
2023/05/11 03:05:29;;;;;;;;;;;;;;;13.46;100.00;99182.44;5031471;28;19917;-81
2023/05/11 03:07:56;;;;;;;;;;;;;;;13.29;100.00;99184.31;5030147;28;19975;-83
2023/05/11 03:10:22;;;;;;;;;;;;;;;13.18;100.00;99171.41;5042487;28;19925;-83
2023/05/11 03:12:48;;;;;;;;;;;;;;;13.12;100.00;99172.09;5055152;28;20297;-83
2023/05/11 03:15:15;;;;;;;;;;;;;;;13.08;100.00;99160.13;5019726;28;19917;-85
2023/05/11 03:17:43;;;;;;;;;;;;;;;12.99;100.00;99171.72;5025284;28;19921;-84
2023/05/11 03:20:12;;;;;;;;;;;;;;;12.87;100.00;99167.78;5038755;28;20344;-83
2023/05/11 03:22:38;;;;;;;;;;;;;;;12.87;100.00;99167.78;5031541;28;20385;-82
2023/05/11 03:25:06;;;;;;;;;;;;;;;12.84;100.00;99165.47;5036267;28;19917;-83
2023/05/11 03:27:32;;;;;;;;;;;;;;;12.81;100.00;99168.44;5043109;28;19917;-84
2023/05/11 03:29:59;;;;;;;;;;;;;;;12.89;100.00;99156.03;5035165;28;19920;-84
2023/05/11 03:32:24;;;;;;;;;;;;;;;12.85;100.00;99154.69;5039484;28;19917;-84
2023/05/11 03:34:51;;;;;;;;;;;;;;;12.80;100.00;99151.72;5030522;28;19917;-84
2023/05/11 03:37:18;;;;;;;;;;;;;;;12.75;100.00;99148.75;5030952;28;19976;-84
2023/05/11 03:39:45;;;;;;;;;;;;;;;12.62;100.00;99141.31;5029259;28;19971;-80
2023/05/11 03:42:12;;;;;;;;;;;;;;;12.61;100.00;99137.00;5046274;28;19920;-81
2023/05/11 03:44:39;;;;;;;;;;;;;;;12.57;100.00;99143.63;5054024;28;20524;-80
2023/05/11 03:47:05;;;;;;;;;;;;;;;12.54;100.00;99143.97;5025310;28;19916;-81
2023/05/11 03:49:31;;;;;;;;;;;;;;;12.55;100.00;99148.25;5030704;28;19917;-82
2023/05/11 03:51:56;;;;;;;;;;;;;;;12.56;100.00;99139.31;5041499;28;19971;-81
2023/05/11 03:54:24;;;;;;;;;;;;;;;12.59;100.00;99144.28;5041261;28;19971;-82
2023/05/11 03:56:50;;;;;;;;;;;;;;;12.65;100.00;99132.22;5049894;28;20331;-82
2023/05/11 03:59:18;;;;;;;;;;;;;;;12.63;100.00;99128.91;5033555;28;19917;-82
2023/05/11 04:01:43;;;;;;;;;;;;;;;12.63;100.00;99137.66;5040726;28;20319;-81
2023/05/11 04:04:09;;;;;;;;;;;;;;;12.69;100.00;99139.66;5034005;28;19939;-79
2023/05/11 04:06:34;;;;;;;;;;;;;;;12.75;100.00;99143.44;5033793;28;19944;-83
2023/05/11 04:09:07;;;;;;;;;;;;;;;12.83;100.00;99142.63;5057907;28;20382;-82
2023/05/11 04:11:37;;;;;;;;;;;;;;;12.86;100.00;99142.28;5023577;28;20284;-82
2023/05/11 04:14:03;;;;;;;;;;;;;;;12.87;100.00;99146.59;5023765;28;19924;-82
2023/05/11 04:16:28;;;;;;;;;;;;;;;12.93;100.00;99152.03;5021678;28;19921;-81
2023/05/11 04:18:55;;;;;;;;;;;;;;;12.96;100.00;99145.59;5037316;28;20299;-81
2023/05/11 04:21:20;;;;;;;;;;;;;;;12.99;100.00;99146.06;5034399;28;20028;-82
2023/05/11 04:23:46;;;;;;;;;;;;;;;13.04;100.00;99140.28;5034521;28;20475;-81
2023/05/11 04:26:11;;;;;;;;;;;;;;;13.08;100.00;99136.28;5034309;28;20430;-82
2023/05/11 04:28:36;;;;;;;;;;;;;;;13.10;100.00;99139.59;5034055;28;19952;-83
2023/05/11 04:31:03;;;;;;;;;;;;;;;13.13;100.00;99131.38;5034392;28;19923;-83
2023/05/11 04:33:29;;;;;;;;;;;;;;;13.15;100.00;99136.47;5032389;28;19967;-83
2023/05/11 04:35:54;;;;;;;;;;;;;;;13.19;100.00;99130.69;5033086;28;20372;-82
2023/05/11 04:38:20;;;;;;;;;;;;;;;13.20;100.00;99132.31;5032679;28;19921;-82
2023/05/11 04:40:46;;;;;;;;;;;;;;;13.26;100.00;99136.94;5033683;28;19939;-80
2023/05/11 04:43:12;;;;;;;;;;;;;;;13.26;100.00;99134.28;5048976;28;20012;-79
2023/05/11 04:45:38;;;;;;;;;;;;;;;13.29;100.00;99131.31;5033402;28;20345;-80
2023/05/11 04:48:03;;;;;;;;;;;;;;;13.28;100.00;99134.13;5035286;28;19956;-81
2023/05/11 04:50:29;;;;;;;;;;;;;;;13.34;100.00;99139.56;5032077;28;20000;-80
2023/05/11 04:52:55;;;;;;;;;;;;;;;13.36;100.00;99134.94;5041613;28;19917;-81
2023/05/11 04:55:20;;;;;;;;;;;;;;;13.38;100.00;99140.03;5033664;28;19924;-83
2023/05/11 04:57:46;;;;;;;;;;;;;;;13.35;100.00;99135.94;5032545;28;19964;-83
2023/05/11 05:00:12;;;;;;;;;;;;;;;13.33;100.00;99139.72;5033575;28;19917;-83
2023/05/11 05:02:37;;;;;;;;;;;;;;;13.37;100.00;99133.91;5030171;28;19924;-83
2023/05/11 05:05:02;;;;;;;;;;;;;;;13.45;100.00;99131.25;5058629;28;19917;-85
2023/05/11 05:07:28;;;;;;;;;;;;;;;13.52;100.00;99137.53;5048641;28;19921;-83
2023/05/11 05:09:54;;;;;;;;;;;;;;;13.58;100.00;99143.13;5045270;28;19957;-83
2023/05/11 05:12:20;;;;;;;;;;;;;;;13.59;100.00;99137.66;5048409;28;19978;-81
2023/05/11 05:14:45;;;;;;;;;;;;;;;13.63;100.00;99148.75;5032989;28;19917;-85
2023/05/11 05:17:10;;;;;;;;;;;;;;;13.66;100.00;99148.41;5034966;28;20384;-82
2023/05/11 05:19:36;;;;;;;;;;;;;;;13.65;100.00;99152.06;5058427;28;20296;-82
2023/05/11 05:22:02;;;;;;;;;;;;;;;13.70;100.00;99155.84;5033120;28;19917;-82
2023/05/11 05:24:30;;;;;;;;;;;;;;;13.74;100.00;99151.84;5063643;28;19917;-82
2023/05/11 05:26:55;;;;;;;;;;;;;;;13.74;100.00;99148.34;5032166;28;19924;-82
2023/05/11 05:29:20;;;;;;;;;;;;;;;13.72;100.00;99147.72;5048243;28;20028;-79
2023/05/11 05:31:47;;;;;;;;;;;;;;;13.81;100.00;99146.69;5046967;28;19948;-78
2023/05/11 05:34:13;;;;;;;;;;;;;;;13.86;100.00;99133.72;5060899;28;20023;-81
2023/05/11 05:36:38;;;;;;;;;;;;;;;13.90;100.00;99140.34;5047355;28;20300;-75
2023/05/11 05:39:08;;;;;;;;;;;;;;;13.96;100.00;99138.81;5028005;28;19921;-81
2023/05/11 05:41:35;;;;;;;;;;;;;;;13.90;100.00;99135.84;5018284;28;19928;-84
2023/05/11 05:44:01;;;;;;;;;;;;;;;13.99;100.00;99138.47;5013234;28;21261;-81
2023/05/11 05:46:26;;;;;;;;;;;;;;;13.99;100.00;99139.28;5031040;28;19924;-82
2023/05/11 05:48:52;;;;;;;;;;;;;;;14.00;100.00;99137.47;5033030;28;19977;-80
2023/05/11 05:51:18;;;;;;;;;;;;;;;14.01;100.00;99141.78;5045888;28;19916;-78
2023/05/11 05:53:43;;;;;;;;;;;;;;;14.08;100.00;99148.84;5030220;28;20058;-80
2023/05/11 05:56:09;;;;;;;;;;;;;;;14.10;100.00;99149.50;5044354;28;20000;-80
2023/05/11 05:58:34;;;;;;;;;;;;;;;14.13;100.00;99146.50;5041161;28;20381;-79
2023/05/11 06:01:00;;;;;;;;;;;;;;;14.12;100.00;99144.03;5030063;28;19920;-80
2023/05/11 06:03:25;;;;;;;;;;;;;;;14.11;100.00;99137.91;5032471;28;20381;-79
2023/05/11 06:05:51;;;;;;;;;;;;;;;14.16;100.00;99145.31;5027929;28;19960;-80
2023/05/11 06:08:16;;;;;;;;;;;;;;;14.22;100.00;99140.13;5029731;28;19931;-79
2023/05/11 06:10:42;;;;;;;;;;;;;;;14.11;100.00;99137.91;5028375;28;19917;-79
2023/05/11 06:13:09;;;;;;;;;;;;;;;14.20;100.00;99136.81;5030293;28;19963;-78
2023/05/11 06:15:35;;;;;;;;;;;;;;;14.23;100.00;99136.50;5029274;28;20441;-77
2023/05/11 06:18:07;;;;;;;;;;;;;;;14.22;100.00;99128.69;5038505;28;19917;-78
2023/05/11 06:20:33;;;;;;;;;;;;;;;14.17;100.00;99131.88;5059029;28;19978;-77
2023/05/11 06:22:59;;;;;;;;;;;;;;;14.14;100.00;99132.22;5021654;28;20348;-78
2023/05/11 06:25:26;;;;;;;;;;;;;;;14.07;100.00;99131.28;5055087;28;19921;-78
2023/05/11 06:27:52;;;;;;;;;;;;;;;14.19;100.00;99134.38;5027317;28;19917;-78
2023/05/11 06:30:17;;;;;;;;;;;;;;;14.14;100.00;99131.38;5030194;28;20384;-78
2023/05/11 06:32:45;;;;;;;;;;;;;;;14.11;100.00;99131.75;5054641;28;19921;-78
2023/05/11 06:35:13;;;;;;;;;;;;;;;14.06;100.00;99132.28;5021415;28;19917;-79
2023/05/11 06:37:39;;;;;;;;;;;;;;;14.02;100.00;99128.31;5037377;28;20371;-78
2023/05/11 06:40:05;;;;;;;;;;;;;;;14.15;100.00;99128.56;5054359;28;20009;-78
2023/05/11 06:42:32;;;;;;;;;;;;;;;14.26;100.00;99130.81;5021595;28;19917;-78
2023/05/11 06:45:07;;;;;;;;;;;;;;;14.42;100.00;99134.41;5019914;28;20408;-78
2023/05/11 06:47:58;;;;;;;;;;;;;;;14.46;100.00;99135.69;5028075;28;19979;-78
2023/05/11 06:50:23;;;;;;;;;;;;;;;14.49;100.00;99135.34;5042213;28;20385;-78
2023/05/11 06:52:50;;;;;;;;;;;;;;;14.45;100.00;99131.38;5029666;28;20000;-78
2023/05/11 06:55:15;;;;;;;;;;;;;;;14.45;100.00;99128.72;5030295;28;19917;-78
2023/05/11 06:57:42;;;;;;;;;;;;;;;14.66;100.00;99131.56;5038962;28;19924;-79
2023/05/11 07:00:07;;;;;;;;;;;;;;;14.86;100.00;99127.38;5030305;28;19916;-79
2023/05/11 07:02:33;;;;;;;;;;;;;;;15.13;100.00;99132.09;5029844;28;20395;-78
2023/05/11 07:04:58;;;;;;;;;;;;;;;15.36;100.00;99128.53;5030599;28;19921;-79
2023/05/11 07:07:23;;;;;;;;;;;;;;;15.50;100.00;99135.66;5044526;28;20301;-79
2023/05/11 07:09:49;;;;;;;;;;;;;;;15.69;100.00;99132.47;5029553;28;19920;-79
2023/05/11 07:12:14;;;;;;;;;;;;;;;15.33;100.00;99124.41;5029951;28;20399;-78
2023/05/11 07:14:40;;;;;;;;;;;;;;;15.29;100.00;99124.97;5030194;28;19920;-80
2023/05/11 07:17:05;;;;;;;;;;;;;;;15.53;100.00;99122.06;5030710;28;19917;-75
2023/05/11 07:19:30;;;;;;;;;;;;;;;15.64;100.00;99124.22;5029994;28;19923;-75
2023/05/11 07:21:56;;;;;;;;;;;;;;;15.81;100.00;99123.00;5030420;28;19961;-77
2023/05/11 07:24:21;;;;;;;;;;;;;;;15.93;100.00;99121.53;5028669;28;19917;-77
2023/05/11 07:26:48;;;;;;;;;;;;;;;15.98;100.00;99119.13;5030263;28;20000;-78
2023/05/11 07:29:14;;;;;;;;;;;;;;;15.87;100.00;99119.59;5030458;28;20013;-78
2023/05/11 07:31:39;;;;;;;;;;;;;;;15.88;100.00;99118.59;5029978;28;19953;-78
2023/05/11 07:34:05;;;;;;;;;;;;;;;15.88;100.00;99123.91;5030174;28;20015;-77
2023/05/11 07:36:30;;;;;;;;;;;;;;;15.90;100.00;99116.56;5029501;28;20636;-78
2023/05/11 07:38:56;;;;;;;;;;;;;;;16.11;100.00;99114.94;5030234;28;19917;-78
2023/05/11 07:41:25;;;;;;;;;;;;;;;16.03;100.00;99104.41;5029938;28;19956;-78
2023/05/11 07:43:50;;;;;;;;;;;;;;;15.99;100.00;99114.63;5029897;28;20373;-77
2023/05/11 07:46:16;;;;;;;;;;;;;;;15.80;100.00;99108.06;5029839;28;19925;-77
2023/05/11 07:48:41;;;;;;;;;;;;;;;15.71;100.00;99106.53;5029638;28;20027;-78
2023/05/11 07:51:06;;;;;;;;;;;;;;;15.80;100.00;99105.41;5031172;28;19917;-78
2023/05/11 07:53:32;;;;;;;;;;;;;;;15.93;100.00;99102.88;5029664;28;19917;-77
2023/05/11 07:55:59;;;;;;;;;;;;;;;16.10;100.00;99100.00;5029780;28;19924;-78
2023/05/11 07:58:25;;;;;;;;;;;;;;;16.26;100.00;99094.41;5036679;28;19917;-78
2023/05/11 08:00:50;;;;;;;;;;;;;;;16.50;100.00;99095.84;5029913;28;20332;-78
2023/05/11 08:03:16;;;;;;;;;;;;;;;16.49;100.00;99092.41;5029990;28;19917;-78
2023/05/11 08:05:41;;;;;;;;;;;;;;;16.49;100.00;99089.75;5029424;28;19928;-78
2023/05/11 08:08:07;;;;;;;;;;;;;;;16.72;100.00;99093.03;5029782;28;19929;-78
2023/05/11 08:10:33;;;;;;;;;;;;;;;16.83;100.00;99085.53;5027954;28;19925;-78
2023/05/11 08:12:59;;;;;;;;;;;;;;;16.91;100.00;99083.50;5029386;28;19921;-78
2023/05/11 08:15:24;;;;;;;;;;;;;;;16.86;100.00;99085.94;5029382;28;19924;-78
2023/05/11 08:17:49;;;;;;;;;;;;;;;16.88;100.00;99094.56;5029435;28;19971;-79
2023/05/11 08:20:15;;;;;;;;;;;;;;;16.69;100.00;99085.41;5030714;28;20007;-78
2023/05/11 08:22:40;;;;;;;;;;;;;;;16.74;100.00;99088.31;5029162;28;20265;-76
2023/05/11 08:25:06;;;;;;;;;;;;;;;16.54;100.00;99092.66;5029583;28;20353;-78
2023/05/11 08:27:31;;;;;;;;;;;;;;;16.50;100.00;99096.69;5029155;28;20372;-78
2023/05/11 08:29:57;;;;;;;;;;;;;;;16.70;100.00;99092.41;5029543;28;19924;-78
2023/05/11 08:32:22;;;;;;;;;;;;;;;16.83;100.00;99090.84;5029483;28;19917;-78
2023/05/11 08:34:47;;;;;;;;;;;;;;;16.90;100.00;99092.56;5029712;28;19924;-78
2023/05/11 08:37:13;;;;;;;;;;;;;;;16.82;100.00;99091.84;5032867;28;20386;-78
2023/05/11 08:39:38;;;;;;;;;;;;;;;16.86;100.00;99090.44;5032794;28;19961;-79
2023/05/11 08:42:05;;;;;;;;;;;;;;;16.94;100.00;99082.31;5033016;28;19917;-78
2023/05/11 08:44:34;;;;;;;;;;;;;;;17.09;100.00;99091.00;5032466;28;19924;-79
2023/05/11 08:46:59;;;;;;;;;;;;;;;17.17;100.00;99083.69;5032709;28;19917;-78
2023/05/11 08:49:25;;;;;;;;;;;;;;;17.24;100.00;99086.41;5039578;28;20408;-78
2023/05/11 08:51:50;;;;;;;;;;;;;;;17.23;100.00;99079.41;5033704;28;19916;-76
2023/05/11 08:54:15;;;;;;;;;;;;;;;17.29;100.00;99075.13;5031602;28;19924;-77
2023/05/11 08:56:42;;;;;;;;;;;;;;;17.27;100.00;99071.84;5032811;28;19917;-78
2023/05/11 08:59:07;;;;;;;;;;;;;;;17.33;100.00;99077.22;5032618;28;20003;-77
2023/05/11 09:01:34;;;;;;;;;;;;;;;17.35;100.00;99069.03;5032507;28;20020;-77
2023/05/11 09:03:59;;;;;;;;;;;;;;;17.42;100.00;99073.38;5032899;28;19924;-78
2023/05/11 09:06:25;;;;;;;;;;;;;;;17.48;99.70;99077.09;5032493;28;19921;-79
2023/05/11 09:08:51;;;;;;;;;;;;;;;17.51;98.84;99064.16;5032849;28;19917;-77
2023/05/11 09:11:17;;;;;;;;;;;;;;;17.56;99.79;99072.38;5039761;28;20625;-77
2023/05/11 09:13:42;;;;;;;;;;;;;;;17.52;100.00;99060.47;5032211;28;19920;-78
2023/05/11 09:16:07;;;;;;;;;;;;;;;17.65;100.00;99064.25;5033183;28;19928;-77
2023/05/11 09:18:33;;;;;;;;;;;;;;;17.72;99.77;99062.44;5033056;28;20046;-77
2023/05/11 09:21:00;;;;;;;;;;;;;;;17.83;93.70;99061.84;5034361;28;20000;-76
2023/05/11 09:23:25;;;;;;;;;;;;;;;17.76;88.51;99066.34;5033921;28;19917;-78
2023/05/11 09:25:51;;;;;;;;;;;;;;;17.80;89.46;99064.91;5033406;28;19924;-76
2023/05/11 09:28:19;;;;;;;;;;;;;;;17.90;97.27;99062.69;5033492;28;19929;-76
2023/05/11 09:30:45;;;;;;;;;;;;;;;17.89;95.83;99055.72;5032960;28;19916;-77
2023/05/11 09:33:10;;;;;;;;;;;;;;;17.93;93.96;99056.94;5034582;28;19923;-77
2023/05/11 09:35:35;;;;;;;;;;;;;;;17.93;89.82;99055.09;5032289;28;19917;-77
2023/05/11 09:38:01;;;;;;;;;;;;;;;18.00;93.98;99052.44;5032667;28;20016;-78
2023/05/11 09:40:27;;;;;;;;;;;;;;;17.98;87.71;99060.66;5030748;28;20019;-78
2023/05/11 09:42:53;;;;;;;;;;;;;;;18.12;87.78;99048.16;5028421;28;19925;-78
2023/05/11 09:45:35;;;;;;;;;;;;;;;18.23;88.02;99044.88;5032092;28;19971;-78
2023/05/11 09:48:01;;;;;;;;;;;;;;;18.35;86.35;99050.44;5028154;28;19917;-77
2023/05/11 09:50:30;;;;;;;;;;;;;;;18.34;86.24;99038.94;5032804;28;20273;-77
2023/05/11 09:52:56;;;;;;;;;;;;;;;18.32;86.98;99040.16;5031467;28;20348;-77
2023/05/11 09:55:21;;;;;;;;;;;;;;;18.41;87.74;99039.75;5031552;28;20324;-78
2023/05/11 09:57:52;;;;;;;;;;;;;;;18.47;89.08;99043.47;5031372;28;20036;-76
2023/05/11 10:00:17;;;;;;;;;;;;;;;18.58;88.75;99034.03;5031740;28;20284;-78
2023/05/11 10:02:42;;;;;;;;;;;;;;;18.64;88.09;99033.19;5031044;28;19983;-77
2023/05/11 10:05:12;;;;;;;;;;;;;;;18.62;83.67;99035.25;5031524;28;19921;-78
2023/05/11 10:07:38;;;;;;;;;;;;;;;18.65;84.03;99029.50;5030889;28;19916;-78
2023/05/11 10:10:07;;;;;;;;;;;;;;;18.72;84.74;99030.31;5031532;28;19917;-78
2023/05/11 10:12:33;;;;;;;;;;;;;;;18.76;83.51;99028.88;5031478;28;19917;-78
2023/05/11 10:15:02;;;;;;;;;;;;;;;18.78;78.58;99024.16;5031647;28;20011;-79
2023/05/11 10:17:29;;;;;;;;;;;;;;;18.86;76.28;99021.22;5031203;28;19976;-77
2023/05/11 10:19:57;;;;;;;;;;;;;;;18.90;73.80;99016.31;5030644;28;19936;-78
2023/05/11 10:22:26;;;;;;;;;;;;;;;19.01;75.73;99016.50;5026788;28;19978;-78
2023/05/11 10:24:52;;;;;;;;;;;;;;;19.08;75.79;99009.28;5030998;28;19924;-77
2023/05/11 10:27:17;;;;;;;;;;;;;;;19.19;78.00;99005.13;5031402;28;19917;-78
2023/05/11 10:29:44;;;;;;;;;;;;;;;19.25;77.61;99009.63;5031022;28;19921;-78
2023/05/11 10:32:10;;;;;;;;;;;;;;;19.29;74.84;99001.97;5031100;28;19924;-78
2023/05/11 10:34:38;;;;;;;;;;;;;;;19.31;74.53;99003.44;5030722;28;19917;-78
2023/05/11 10:37:03;;;;;;;;;;;;;;;19.33;74.56;98996.00;5031377;28;19963;-78
2023/05/11 10:39:29;;;;;;;;;;;;;;;19.38;75.96;98996.16;5030700;28;19921;-78
2023/05/11 10:42:13;;;;;;;;;;;;;;;19.47;76.43;98996.78;5031113;28;19917;-78
2023/05/11 10:44:48;;;;;;;;;;;;;;;19.57;77.39;98994.47;5028918;28;19978;-78
2023/05/11 10:47:31;;;;;;;;;;;;;;;19.69;74.60;98984.72;5030970;28;20007;-78
2023/05/11 10:50:15;;;;;;;;;;;;;;;19.75;76.84;98975.84;5028490;28;19917;-78
2023/05/11 10:52:58;;;;;;;;;;;;;;;19.76;74.17;98974.81;5030333;28;19924;-78
2023/05/11 10:55:27;;;;;;;;;;;;;;;19.83;69.77;98975.59;5038902;28;19917;-78
2023/05/11 10:58:08;;;;;;;;;;;;;;;19.87;70.88;98968.75;5026684;28;19917;-78
2023/05/11 11:00:52;;;;;;;;;;;;;;;19.88;67.29;98967.72;5027839;28;20057;-78
2023/05/11 11:03:17;;;;;;;;;;;;;;;19.84;66.91;98969.19;5030684;28;20422;-78
2023/05/11 11:05:43;;;;;;;;;;;;;;;19.85;66.72;98968.16;5030467;28;20008;-77
2023/05/11 11:08:09;;;;;;;;;;;;;;;19.88;66.09;98965.03;5030443;28;19927;-79
2023/05/11 11:10:45;;;;;;;;;;;;;;;19.85;58.72;98962.78;5030044;28;19921;-77
2023/05/11 11:13:11;;;;;;;;;;;;;;;19.88;59.50;98951.66;5037526;28;19917;-78
2023/05/11 11:15:55;;;;;;;;;;;;;;;19.96;58.38;98954.09;5030237;28;20049;-78
2023/05/11 11:18:20;;;;;;;;;;;;;;;20.11;54.18;98955.59;5031069;28;19923;-78
2023/05/11 11:20:47;;;;;;;;;;;;;;;20.20;52.87;98954.31;5030987;28;20352;-78
2023/05/11 11:23:31;;;;;;;;;;;;;;;20.28;48.50;98945.97;5054183;28;20277;-78
2023/05/11 11:25:57;;;;;;;;;;;;;;;20.32;47.07;98942.66;5026876;28;19928;-78
2023/05/11 11:28:22;;;;;;;;;;;;;;;20.39;48.25;98942.59;5025045;28;19963;-77
2023/05/11 11:30:47;;;;;;;;;;;;;;;20.49;46.01;98932.22;5030207;28;19936;-78
2023/05/11 11:33:13;;;;;;;;;;;;;;;20.51;46.83;98935.47;5030440;28;20383;-77
2023/05/11 11:35:38;;;;;;;;;;;;;;;20.58;44.47;98925.50;5029681;28;19932;-78
2023/05/11 11:38:05;;;;;;;;;;;;;;;20.66;45.70;98922.56;5029941;28;19927;-78
2023/05/11 11:40:42;;;;;;;;;;;;;;;20.77;44.58;98929.84;5029942;28;19952;-78
2023/05/11 11:43:16;;;;;;;;;;;;;;;20.88;41.45;98924.78;5030622;28;19916;-78
2023/05/11 11:46:01;;;;;;;;;;;;;;;20.94;39.41;98921.19;5030034;28;19956;-79
2023/05/11 11:48:30;;;;;;;;;;;;;;;21.07;40.56;98918.38;5026715;28;19943;-79
2023/05/11 11:51:07;;;;;;;;;;;;;;;21.14;40.12;98914.56;5044548;28;20277;-78
2023/05/11 11:53:35;;;;;;;;;;;;;;;21.20;38.97;98912.88;5026395;28;19917;-77
2023/05/11 11:56:01;;;;;;;;;;;;;;;21.29;39.65;98908.00;5026817;28;19952;-77
2023/05/11 11:58:45;;;;;;;;;;;;;;;21.24;36.34;98906.81;5029644;28;19956;-78
2023/05/11 12:01:21;;;;;;;;;;;;;;;21.28;39.45;98900.97;5028131;28;20385;-78
2023/05/11 12:03:52;;;;;;;;;;;;;;;21.29;39.55;98900.75;5029886;28;19913;-79
2023/05/11 12:06:20;;;;;;;;;;;;;;;21.41;40.10;98893.56;5029575;28;19931;-78
2023/05/11 12:08:46;;;;;;;;;;;;;;;21.60;40.10;98897.84;5029358;28;19936;-78
2023/05/11 12:11:15;;;;;;;;;;;;;;;21.84;38.84;98892.50;5032428;28;19917;-78
2023/05/11 12:13:41;;;;;;;;;;;;;;;22.10;39.76;98899.34;5047205;28;19921;-78
2023/05/11 12:16:11;;;;;;;;;;;;;;;22.32;37.00;98893.16;5033569;28;20238;-77
2023/05/11 12:18:36;;;;;;;;;;;;;;;22.51;36.11;98890.31;5033402;28;20381;-79
2023/05/11 12:21:03;;;;;;;;;;;;;;;22.68;34.00;98885.88;5034884;28;19963;-78
2023/05/11 12:23:29;;;;;;;;;;;;;;;22.84;33.57;98887.84;5033030;28;20373;-78
2023/05/11 12:26:01;;;;;;;;;;;;;;;23.02;32.60;98885.00;5033727;28;20427;-79
2023/05/11 12:28:27;;;;;;;;;;;;;;;23.16;33.08;98880.13;5029891;28;20426;-78
2023/05/11 12:30:56;;;;;;;;;;;;;;;23.26;35.68;98883.03;5033552;28;20098;-78
2023/05/11 12:33:21;;;;;;;;;;;;;;;23.36;38.45;98871.63;5027927;28;19924;-77
2023/05/11 12:35:50;;;;;;;;;;;;;;;23.25;37.31;98876.84;5031472;28;19932;-76
2023/05/11 12:38:16;;;;;;;;;;;;;;;23.19;36.28;98872.41;5031715;28;19970;-76
2023/05/11 12:40:48;;;;;;;;;;;;;;;23.19;35.28;98869.72;5031903;28;20012;-78